createdAt,value
2023-04-09T00:01:07.816Z,99.90
2023-04-09T00:03:38.619Z,99.90
2023-04-09T00:06:08.103Z,99.90
2023-04-09T00:08:37.101Z,99.90
2023-04-09T00:11:06.312Z,99.90
2023-04-09T00:13:39.660Z,99.90
2023-04-09T00:16:09.602Z,99.90
2023-04-09T00:18:39.581Z,99.90
2023-04-09T00:21:08.957Z,99.90
2023-04-09T00:23:37.558Z,99.90
2023-04-09T00:26:06.420Z,99.90
2023-04-09T00:28:34.970Z,99.90
2023-04-09T00:31:03.553Z,99.90
2023-04-09T00:33:32.272Z,99.90
2023-04-09T00:36:02.315Z,99.90
2023-04-09T00:38:30.869Z,99.80
2023-04-09T00:40:59.396Z,99.70
2023-04-09T00:43:28.231Z,99.70
2023-04-09T00:45:57.191Z,99.70
2023-04-09T00:48:25.880Z,99.40
2023-04-09T00:50:54.582Z,99.30
2023-04-09T00:53:24.802Z,99.30
2023-04-09T00:55:54.404Z,99.40
2023-04-09T00:58:23.136Z,99.60
2023-04-09T01:00:51.734Z,99.40
2023-04-09T01:03:20.491Z,99.40
2023-04-09T01:05:55.862Z,99.20
2023-04-09T01:08:39.638Z,99.10
2023-04-09T01:11:17.347Z,99.70
2023-04-09T01:13:52.800Z,99.80
2023-04-09T01:16:25.056Z,99.90
2023-04-09T01:18:59.382Z,99.90
2023-04-09T01:21:33.493Z,99.90
2023-04-09T01:24:14.781Z,99.90
2023-04-09T01:26:58.501Z,99.90
2023-04-09T01:29:38.560Z,99.90
2023-04-09T01:32:08.568Z,99.90
2023-04-09T01:34:39.115Z,99.90
2023-04-09T01:37:09.730Z,99.90
2023-04-09T01:39:39.432Z,99.90
2023-04-09T01:42:11.302Z,99.90
2023-04-09T01:44:42.374Z,99.90
2023-04-09T01:47:11.531Z,99.90
2023-04-09T01:49:41.049Z,99.90
2023-04-09T01:52:10.157Z,99.90
2023-04-09T01:54:38.780Z,99.90
2023-04-09T01:57:07.353Z,99.90
2023-04-09T01:59:35.912Z,99.90
2023-04-09T02:02:11.493Z,99.90
2023-04-09T02:04:45.189Z,99.90
2023-04-09T02:07:23.941Z,99.90
2023-04-09T02:09:55.763Z,99.90
2023-04-09T02:12:26.361Z,99.90
2023-04-09T02:14:55.939Z,99.90
2023-04-09T02:17:25.998Z,99.90
2023-04-09T02:19:54.675Z,99.90
2023-04-09T02:22:23.250Z,99.90
2023-04-09T02:24:51.989Z,99.90
2023-04-09T02:27:20.597Z,99.90
2023-04-09T02:29:49.308Z,99.90
2023-04-09T02:32:17.905Z,99.90
2023-04-09T02:34:47.927Z,99.90
2023-04-09T02:37:16.589Z,99.90
2023-04-09T02:39:45.176Z,99.90
2023-04-09T02:42:13.850Z,99.90
2023-04-09T02:44:42.540Z,99.90
2023-04-09T02:47:11.179Z,99.90
2023-04-09T02:49:40.800Z,99.90
2023-04-09T02:52:11.671Z,99.90
2023-04-09T02:54:40.676Z,99.90
2023-04-09T02:57:09.320Z,99.90
2023-04-09T02:59:39.177Z,99.90
2023-04-09T03:02:08.056Z,99.90
2023-04-09T03:04:36.802Z,99.90
2023-04-09T03:07:05.653Z,99.90
2023-04-09T03:09:35.678Z,99.90
2023-04-09T03:12:04.278Z,99.90
2023-04-09T03:14:34.223Z,99.90
2023-04-09T03:17:04.405Z,99.90
2023-04-09T03:19:33.175Z,99.90
2023-04-09T03:22:02.935Z,99.90
2023-04-09T03:24:34.905Z,99.90
2023-04-09T03:27:06.889Z,99.90
2023-04-09T03:29:36.216Z,99.90
2023-04-09T03:32:05.276Z,99.90
2023-04-09T03:34:34.115Z,99.90
2023-04-09T03:37:02.861Z,99.90
2023-04-09T03:39:34.670Z,99.90
2023-04-09T03:42:04.276Z,99.90
2023-04-09T03:44:43.049Z,99.90
2023-04-09T03:47:16.492Z,99.90
2023-04-09T03:49:45.190Z,99.90
2023-04-09T03:52:25.511Z,99.90
2023-04-09T03:55:05.285Z,99.90
2023-04-09T03:57:34.013Z,99.90
2023-04-09T04:00:03.865Z,99.90
2023-04-09T04:02:40.869Z,99.90
2023-04-09T04:05:11.823Z,99.90
2023-04-09T04:07:46.824Z,99.90
2023-04-09T04:10:22.007Z,99.90
2023-04-09T04:12:50.677Z,99.90
2023-04-09T04:15:32.370Z,99.90
2023-04-09T04:18:01.105Z,99.90
2023-04-09T04:20:40.168Z,99.90
2023-04-09T04:23:12.643Z,99.90
2023-04-09T04:25:53.231Z,99.90
2023-04-09T04:28:29.339Z,99.90
2023-04-09T04:30:58.329Z,99.90
2023-04-09T04:33:27.716Z,99.90
2023-04-09T04:36:06.720Z,99.90
2023-04-09T04:38:43.139Z,99.90
2023-04-09T04:41:21.020Z,99.90
2023-04-09T04:43:57.403Z,99.90
2023-04-09T04:46:27.392Z,99.90
2023-04-09T04:48:56.036Z,99.90
2023-04-09T04:51:24.916Z,99.90
2023-04-09T04:54:04.780Z,99.90
2023-04-09T04:56:34.976Z,99.90
2023-04-09T04:59:10.299Z,99.90
2023-04-09T05:02:00.062Z,99.90
2023-04-09T05:04:32.680Z,99.90
2023-04-09T05:07:02.151Z,99.90
2023-04-09T05:09:31.153Z,99.90
2023-04-09T05:12:08.387Z,99.90
2023-04-09T05:14:37.231Z,99.90
2023-04-09T05:17:06.308Z,99.90
2023-04-09T05:19:43.186Z,99.90
2023-04-09T05:22:13.349Z,99.90
2023-04-09T05:24:41.866Z,99.90
2023-04-09T05:27:13.332Z,99.90
2023-04-09T05:29:43.376Z,99.90
2023-04-09T05:32:12.281Z,99.90
2023-04-09T05:34:41.942Z,99.90
2023-04-09T05:37:10.513Z,99.90
2023-04-09T05:39:40.990Z,99.90
2023-04-09T05:42:10.548Z,99.90
2023-04-09T05:45:03.424Z,99.90
2023-04-09T05:47:33.126Z,99.90
2023-04-09T05:50:11.969Z,99.90
2023-04-09T05:52:40.791Z,99.90
2023-04-09T05:55:10.737Z,99.90
2023-04-09T05:57:47.638Z,99.90
2023-04-09T06:00:18.502Z,99.90
2023-04-09T06:02:49.063Z,99.90
2023-04-09T06:05:17.976Z,99.90
2023-04-09T06:07:48.313Z,99.90
2023-04-09T06:10:16.966Z,99.90
2023-04-09T06:12:45.803Z,99.90
2023-04-09T06:15:14.494Z,99.90
2023-04-09T06:17:44.562Z,99.90
2023-04-09T06:20:14.132Z,99.90
2023-04-09T06:22:42.685Z,99.90
2023-04-09T06:25:11.477Z,99.90
2023-04-09T06:27:40.073Z,99.90
2023-04-09T06:30:10.306Z,99.90
2023-04-09T06:32:51.060Z,99.60
2023-04-09T06:35:24.291Z,99.20
2023-04-09T06:37:52.932Z,99.10
2023-04-09T06:40:23.528Z,99.00
2023-04-09T06:42:52.181Z,98.90
2023-04-09T06:45:30.079Z,98.90
2023-04-09T06:47:59.256Z,98.80
2023-04-09T06:50:29.374Z,99.00
2023-04-09T06:52:59.977Z,99.10
2023-04-09T06:55:28.555Z,99.10
2023-04-09T06:57:57.071Z,99.30
2023-04-09T07:00:25.669Z,99.00
2023-04-09T07:02:55.427Z,98.80
2023-04-09T07:05:24.210Z,98.90
2023-04-09T07:07:54.465Z,98.70
2023-04-09T07:10:23.210Z,98.60
2023-04-09T07:12:51.870Z,98.40
2023-04-09T07:15:20.439Z,98.20
2023-04-09T07:17:49.024Z,98.00
2023-04-09T07:20:17.744Z,97.20
2023-04-09T07:22:47.280Z,98.30
2023-04-09T07:25:17.903Z,98.50
2023-04-09T07:27:46.560Z,99.90
2023-04-09T07:30:15.121Z,99.80
2023-04-09T07:32:44.022Z,99.90
2023-04-09T07:35:13.066Z,99.60
2023-04-09T07:37:41.733Z,99.90
2023-04-09T07:40:10.976Z,98.80
2023-04-09T07:42:42.611Z,98.50
2023-04-09T07:45:11.495Z,98.50
2023-04-09T07:47:40.915Z,99.20
2023-04-09T07:50:10.738Z,99.80
2023-04-09T07:52:39.510Z,99.60
2023-04-09T07:55:08.493Z,99.40
2023-04-09T07:57:38.117Z,99.10
2023-04-09T08:00:09.500Z,99.10
2023-04-09T08:02:45.918Z,99.30
2023-04-09T08:05:14.747Z,99.50
2023-04-09T08:07:43.256Z,98.90
2023-04-09T08:10:15.292Z,98.90
2023-04-09T08:12:44.141Z,98.70
2023-04-09T08:15:14.256Z,98.30
2023-04-09T08:17:42.933Z,97.70
2023-04-09T08:20:12.823Z,97.60
2023-04-09T08:22:42.843Z,97.50
2023-04-09T08:25:11.486Z,97.70
2023-04-09T08:27:40.104Z,97.30
2023-04-09T08:30:09.912Z,97.10
2023-04-09T08:32:39.916Z,96.80
2023-04-09T08:35:09.435Z,96.20
2023-04-09T08:37:37.942Z,95.90
2023-04-09T08:40:07.568Z,95.90
2023-04-09T08:42:37.539Z,95.80
2023-04-09T08:45:06.874Z,96.10
2023-04-09T08:47:38.187Z,96.20
2023-04-09T08:50:09.241Z,95.80
2023-04-09T08:52:38.757Z,95.80
2023-04-09T08:55:08.759Z,95.80
2023-04-09T08:57:39.592Z,95.70
2023-04-09T09:00:09.839Z,95.90
2023-04-09T09:02:39.573Z,96.40
2023-04-09T09:05:10.498Z,96.70
2023-04-09T09:07:55.104Z,97.00
2023-04-09T09:10:38.002Z,97.20
2023-04-09T09:13:18.525Z,97.50
2023-04-09T09:15:50.029Z,98.20
2023-04-09T09:18:19.630Z,98.50
2023-04-09T09:20:49.727Z,99.00
2023-04-09T09:23:18.299Z,99.90
2023-04-09T09:25:46.846Z,99.90
2023-04-09T09:28:15.488Z,99.90
2023-04-09T09:30:44.138Z,99.90
2023-04-09T09:33:13.354Z,99.90
2023-04-09T09:35:54.546Z,99.90
2023-04-09T09:38:23.292Z,99.90
2023-04-09T09:40:52.632Z,99.90
2023-04-09T09:43:21.676Z,99.90
2023-04-09T09:45:50.536Z,99.90
2023-04-09T09:48:19.209Z,99.90
2023-04-09T09:50:49.100Z,99.90
2023-04-09T09:53:23.880Z,99.90
2023-04-09T09:55:57.798Z,99.90
2023-04-09T09:58:32.179Z,99.90
2023-04-09T10:01:03.042Z,99.90
2023-04-09T10:03:33.577Z,99.90
2023-04-09T10:06:04.509Z,99.90
2023-04-09T10:08:36.160Z,99.90
2023-04-09T10:11:06.553Z,99.90
2023-04-09T10:13:40.108Z,99.90
2023-04-09T10:16:10.216Z,99.90
2023-04-09T10:18:38.969Z,99.90
2023-04-09T10:21:16.113Z,99.90
2023-04-09T10:23:49.491Z,99.90
2023-04-09T10:26:19.964Z,99.90
2023-04-09T10:28:48.516Z,99.90
2023-04-09T10:31:17.118Z,99.90
2023-04-09T10:33:46.144Z,99.90
2023-04-09T10:36:15.767Z,99.90
2023-04-09T10:38:48.937Z,99.90
2023-04-09T10:41:23.660Z,99.90
2023-04-09T10:43:52.395Z,99.90
2023-04-09T10:46:28.740Z,99.90
2023-04-09T10:49:14.201Z,99.90
2023-04-09T10:51:45.292Z,99.90
2023-04-09T10:54:47.160Z,99.90
2023-04-09T10:57:20.869Z,99.90
2023-04-09T10:59:51.618Z,99.90
2023-04-09T11:02:54.634Z,99.90
2023-04-09T11:05:42.046Z,99.90
2023-04-09T11:08:12.438Z,99.90
2023-04-09T11:10:44.920Z,99.90
2023-04-09T11:13:14.370Z,99.90
2023-04-09T11:15:43.250Z,99.90
2023-04-09T11:18:16.237Z,99.90
2023-04-09T11:20:44.907Z,99.90
2023-04-09T11:23:14.375Z,99.90
2023-04-09T11:25:44.624Z,99.90
2023-04-09T11:28:13.147Z,99.90
2023-04-09T11:30:42.695Z,99.90
2023-04-09T11:33:11.501Z,99.90
2023-04-09T11:35:40.120Z,99.90
2023-04-09T11:38:09.292Z,99.90
2023-04-09T11:40:43.650Z,99.90
2023-04-09T11:43:14.896Z,99.90
2023-04-09T11:45:43.677Z,99.90
2023-04-09T11:48:13.219Z,99.90
2023-04-09T11:50:42.610Z,99.90
2023-04-09T11:53:18.832Z,99.90
2023-04-09T11:55:50.859Z,99.90
2023-04-09T11:58:26.783Z,99.90
2023-04-09T12:00:56.682Z,99.90
2023-04-09T12:03:31.121Z,99.90
2023-04-09T12:06:03.145Z,99.90
2023-04-09T12:08:34.707Z,99.90
2023-04-09T12:11:11.407Z,99.90
2023-04-09T12:13:43.575Z,99.90
2023-04-09T12:16:13.111Z,99.90
2023-04-09T12:18:42.530Z,99.90
2023-04-09T12:21:11.427Z,99.90
2023-04-09T12:23:39.920Z,99.90
2023-04-09T12:26:08.513Z,99.90
2023-04-09T12:28:37.172Z,99.90
2023-04-09T12:31:10.570Z,99.90
2023-04-09T12:33:40.602Z,99.90
2023-04-09T12:36:09.474Z,99.90
2023-04-09T12:38:38.022Z,99.90
2023-04-09T12:41:06.710Z,99.90
2023-04-09T12:43:35.202Z,99.90
2023-04-09T12:46:03.742Z,99.90
2023-04-09T12:48:34.110Z,99.90
2023-04-09T12:51:02.934Z,99.90
2023-04-09T12:53:31.558Z,99.90
2023-04-09T12:56:01.912Z,99.90
2023-04-09T12:58:30.583Z,99.90
2023-04-09T13:00:59.266Z,99.90
2023-04-09T13:03:29.266Z,99.90
2023-04-09T13:05:59.430Z,99.90
2023-04-09T13:08:28.123Z,99.90
2023-04-09T13:10:57.195Z,99.90
2023-04-09T13:13:25.825Z,99.90
2023-04-09T13:15:54.501Z,99.90
2023-04-09T13:18:23.111Z,99.90
2023-04-09T13:20:51.713Z,99.90
2023-04-09T13:23:21.617Z,99.90
2023-04-09T13:25:50.221Z,99.90
2023-04-09T13:28:18.991Z,99.90
2023-04-09T13:30:49.042Z,99.90
2023-04-09T13:33:17.657Z,99.90
2023-04-09T13:35:46.852Z,99.90
2023-04-09T13:38:15.432Z,99.90
2023-04-09T13:40:46.112Z,99.90
2023-04-09T13:43:14.664Z,99.90
2023-04-09T13:45:43.217Z,99.90
2023-04-09T13:48:13.447Z,99.90
2023-04-09T13:50:43.857Z,99.90
2023-04-09T13:53:12.597Z,99.90
2023-04-09T13:55:41.755Z,99.90
2023-04-09T13:58:11.742Z,99.90
2023-04-09T14:00:41.445Z,99.90
2023-04-09T14:03:10.118Z,99.90
2023-04-09T14:05:38.648Z,99.90
2023-04-09T14:08:07.454Z,99.90
2023-04-09T14:10:36.946Z,99.40
2023-04-09T14:13:07.370Z,99.40
2023-04-09T14:15:37.513Z,99.60
2023-04-09T14:18:06.330Z,99.70
2023-04-09T14:20:36.189Z,99.20
2023-04-09T14:23:04.715Z,99.00
2023-04-09T14:25:33.501Z,98.90
2023-04-09T14:28:02.181Z,98.50
2023-04-09T14:30:30.788Z,98.10
2023-04-09T14:33:00.851Z,98.80
2023-04-09T14:35:29.672Z,98.50
2023-04-09T14:37:58.265Z,99.00
2023-04-09T14:40:26.948Z,99.20
2023-04-09T14:42:55.490Z,99.20
2023-04-09T14:45:24.188Z,99.40
2023-04-09T14:47:53.611Z,99.30
2023-04-09T14:50:23.595Z,99.60
2023-04-09T14:52:52.667Z,99.90
2023-04-09T14:55:21.384Z,99.90
2023-04-09T14:57:49.883Z,99.90
2023-04-09T15:00:18.646Z,99.90
2023-04-09T15:02:48.022Z,99.90
2023-04-09T15:05:16.774Z,99.90
2023-04-09T15:07:46.944Z,99.90
2023-04-09T15:10:15.793Z,99.90
2023-04-09T15:12:44.320Z,99.90
2023-04-09T15:15:14.531Z,99.90
2023-04-09T15:17:43.159Z,99.90
2023-04-09T15:20:13.991Z,99.90
2023-04-09T15:22:42.614Z,99.90
2023-04-09T15:25:14.385Z,99.90
2023-04-09T15:27:43.216Z,99.90
2023-04-09T15:30:12.112Z,99.90
2023-04-09T15:32:41.507Z,99.90
2023-04-09T15:35:10.655Z,99.90
2023-04-09T15:37:39.179Z,99.90
2023-04-09T15:40:08.890Z,99.90
2023-04-09T15:42:38.808Z,99.90
2023-04-09T15:45:08.316Z,99.90
2023-04-09T15:47:37.086Z,99.90
2023-04-09T15:50:06.288Z,99.90
2023-04-09T15:52:34.849Z,99.90
2023-04-09T15:55:03.497Z,99.90
2023-04-09T15:57:32.390Z,99.90
2023-04-09T16:00:02.404Z,99.90
2023-04-09T16:02:33.094Z,99.90
2023-04-09T16:05:02.193Z,99.90
2023-04-09T16:07:31.101Z,99.90
2023-04-09T16:09:59.945Z,99.90
2023-04-09T16:12:28.480Z,99.90
2023-04-09T16:14:57.222Z,99.90
2023-04-09T16:17:27.333Z,99.90
2023-04-09T16:19:56.430Z,99.90
2023-04-09T16:22:25.155Z,99.90
2023-04-09T16:24:53.697Z,99.90
2023-04-09T16:27:22.246Z,99.90
2023-04-09T16:29:50.838Z,99.90
2023-04-09T16:32:19.456Z,99.90
2023-04-09T16:34:49.521Z,99.90
2023-04-09T16:37:18.063Z,99.90
2023-04-09T16:39:46.513Z,99.90
2023-04-09T16:42:15.069Z,99.90
2023-04-09T16:44:43.671Z,99.90
2023-04-09T16:47:12.270Z,99.90
2023-04-09T16:49:40.987Z,99.90
2023-04-09T16:52:10.999Z,99.90
2023-04-09T16:54:39.786Z,99.90
2023-04-09T16:57:08.542Z,99.90
2023-04-09T16:59:37.924Z,99.90
2023-04-09T17:02:07.188Z,99.90
2023-04-09T17:04:37.670Z,99.90
2023-04-09T17:07:06.383Z,99.90
2023-04-09T17:09:36.341Z,99.90
2023-04-09T17:12:04.907Z,99.90
2023-04-09T17:14:34.474Z,99.90
2023-04-09T17:17:03.164Z,99.90
2023-04-09T17:19:31.769Z,99.90
2023-04-09T17:22:00.532Z,99.90
2023-04-09T17:24:29.182Z,99.90
2023-04-09T17:26:59.582Z,99.90
2023-04-09T17:29:28.202Z,99.90
2023-04-09T17:31:57.009Z,99.90
2023-04-09T17:34:25.719Z,99.90
2023-04-09T17:36:57.319Z,99.90
2023-04-09T17:39:26.347Z,99.90
2023-04-09T17:41:56.598Z,99.90
2023-04-09T17:44:26.776Z,99.90
2023-04-09T17:46:55.608Z,99.90
2023-04-09T17:49:24.129Z,99.90
2023-04-09T17:51:52.714Z,99.90
2023-04-09T17:54:21.841Z,99.90
2023-04-09T17:56:50.447Z,99.90
2023-04-09T17:59:18.971Z,99.90
2023-04-09T18:01:49.081Z,99.90
2023-04-09T18:04:18.090Z,99.90
2023-04-09T18:06:46.676Z,99.90
2023-04-09T18:09:15.352Z,99.90
2023-04-09T18:11:43.911Z,99.90
2023-04-09T18:14:12.579Z,99.90
2023-04-09T18:16:42.499Z,99.90
2023-04-09T18:19:12.806Z,99.90
2023-04-09T18:21:41.774Z,99.90
2023-04-09T18:24:10.358Z,99.90
2023-04-09T18:26:38.945Z,99.90
2023-04-09T18:29:08.554Z,99.90
2023-04-09T18:31:37.202Z,99.90
2023-04-09T18:34:05.811Z,99.90
2023-04-09T18:36:35.873Z,99.90
2023-04-09T18:39:06.669Z,99.90
2023-04-09T18:41:35.408Z,99.90
2023-04-09T18:44:03.983Z,99.90
2023-04-09T18:46:32.599Z,99.90
2023-04-09T18:49:01.678Z,99.90
2023-04-09T18:51:32.058Z,99.90
2023-04-09T18:54:02.162Z,99.90
2023-04-09T18:56:30.750Z,99.90
2023-04-09T18:58:59.276Z,99.90
2023-04-09T19:01:27.903Z,99.90
2023-04-09T19:03:56.647Z,99.90
2023-04-09T19:06:25.904Z,99.90
2023-04-09T19:08:58.352Z,99.90
2023-04-09T19:11:29.468Z,99.90
2023-04-09T19:13:58.167Z,99.90
2023-04-09T19:16:26.842Z,99.90
2023-04-09T19:18:55.640Z,99.90
2023-04-09T19:21:24.755Z,99.90
2023-04-09T19:23:53.294Z,99.90
2023-04-09T19:26:22.289Z,99.90
2023-04-09T19:28:52.600Z,99.90
2023-04-09T19:31:21.527Z,99.90
2023-04-09T19:33:50.074Z,99.90
2023-04-09T19:36:18.713Z,99.90
2023-04-09T19:38:47.259Z,99.90
2023-04-09T19:41:16.015Z,99.90
2023-04-09T19:43:46.780Z,99.90
2023-04-09T19:46:16.962Z,99.90
2023-04-09T19:48:49.533Z,99.90
2023-04-09T19:51:20.189Z,99.90
2023-04-09T19:53:49.408Z,99.90
2023-04-09T19:56:17.959Z,99.90
2023-04-09T19:58:46.750Z,99.90
2023-04-09T20:01:17.087Z,99.90
2023-04-09T20:03:46.065Z,99.90
2023-04-09T20:06:14.678Z,99.90
2023-04-09T20:08:43.292Z,99.90
2023-04-09T20:11:17.984Z,99.90
2023-04-09T20:13:48.114Z,99.90
2023-04-09T20:16:18.163Z,99.90
2023-04-09T20:18:47.250Z,99.90
2023-04-09T20:21:15.724Z,99.90
2023-04-09T20:23:45.348Z,99.90
2023-04-09T20:26:13.941Z,99.90
2023-04-09T20:28:42.503Z,99.90
2023-04-09T20:31:11.046Z,99.90
2023-04-09T20:33:40.968Z,99.90
2023-04-09T20:36:16.930Z,99.90
2023-04-09T20:38:45.591Z,99.90
2023-04-09T20:41:14.085Z,99.90
2023-04-09T20:43:42.675Z,99.90
2023-04-09T20:46:12.060Z,99.90
2023-04-09T20:48:42.847Z,99.90
2023-04-09T20:51:12.041Z,99.90
2023-04-09T20:53:40.593Z,99.90
2023-04-09T20:56:09.667Z,99.90
2023-04-09T20:58:39.087Z,99.90
2023-04-09T21:01:09.707Z,99.90
2023-04-09T21:03:40.155Z,99.90
2023-04-09T21:06:10.529Z,99.90
2023-04-09T21:08:42.833Z,99.90
2023-04-09T21:11:11.498Z,99.90
2023-04-09T21:13:51.145Z,99.90
2023-04-09T21:16:22.432Z,99.90
2023-04-09T21:18:51.717Z,99.90
2023-04-09T21:21:21.981Z,99.90
2023-04-09T21:23:50.500Z,99.90
2023-04-09T21:26:19.007Z,99.90
2023-04-09T21:28:50.642Z,99.90
2023-04-09T21:31:19.540Z,99.90
2023-04-09T21:33:48.118Z,99.90
2023-04-09T21:36:16.982Z,99.90
2023-04-09T21:38:46.985Z,99.90
2023-04-09T21:41:15.924Z,99.90
2023-04-09T21:43:44.539Z,99.90
2023-04-09T21:46:13.207Z,99.90
2023-04-09T21:48:42.133Z,99.90
2023-04-09T21:51:11.620Z,99.90
2023-04-09T21:53:40.123Z,99.90
2023-04-09T21:56:10.829Z,99.90
2023-04-09T21:58:39.345Z,99.90
2023-04-09T22:01:15.870Z,99.90
2023-04-09T22:03:47.648Z,99.90
2023-04-09T22:06:16.422Z,99.90
2023-04-09T22:08:55.601Z,99.90
2023-04-09T22:11:28.835Z,99.90
2023-04-09T22:13:57.807Z,99.90
2023-04-09T22:16:27.045Z,99.90
2023-04-09T22:18:56.452Z,99.90
2023-04-09T22:21:25.510Z,99.90
2023-04-09T22:23:54.006Z,99.90
2023-04-09T22:26:22.897Z,99.90
2023-04-09T22:28:53.139Z,99.90
2023-04-09T22:31:22.136Z,99.90
2023-04-09T22:33:50.690Z,99.90
2023-04-09T22:36:19.299Z,99.90
2023-04-09T22:38:47.859Z,99.90
2023-04-09T22:41:17.766Z,99.90
2023-04-09T22:43:46.471Z,99.90
2023-04-09T22:46:16.455Z,99.90
2023-04-09T22:48:46.762Z,99.90
2023-04-09T22:51:15.662Z,99.90
2023-04-09T22:53:44.478Z,99.90
2023-04-09T22:56:13.470Z,99.90
2023-04-09T22:58:44.237Z,99.90
2023-04-09T23:01:12.960Z,99.90
2023-04-09T23:03:42.958Z,99.90
2023-04-09T23:06:11.494Z,99.90
2023-04-09T23:08:40.809Z,99.90
2023-04-09T23:11:10.504Z,99.90
2023-04-09T23:13:39.122Z,99.90
2023-04-09T23:16:09.200Z,99.90
2023-04-09T23:18:38.437Z,99.90
2023-04-09T23:21:09.054Z,99.90
2023-04-09T23:23:38.769Z,99.90
2023-04-09T23:26:08.083Z,99.90
2023-04-09T23:28:36.571Z,99.90
2023-04-09T23:31:05.283Z,99.90
2023-04-09T23:33:34.561Z,99.90
2023-04-09T23:36:03.148Z,99.90
2023-04-09T23:38:33.109Z,99.90
2023-04-09T23:41:01.645Z,99.90
2023-04-09T23:43:30.198Z,99.90
2023-04-09T23:45:58.722Z,99.90
2023-04-09T23:48:27.332Z,99.90
2023-04-09T23:50:55.887Z,99.90
2023-04-09T23:53:24.519Z,99.90
2023-04-09T23:55:54.457Z,99.90
2023-04-09T23:58:23.293Z,99.90
